createdAt,value
2022-12-16T00:01:35.204Z,119.25
2022-12-16T00:04:02.288Z,114.75
2022-12-16T00:06:32.793Z,117.28
2022-12-16T00:09:01.074Z,110.82
2022-12-16T00:11:28.832Z,107.38
2022-12-16T00:13:55.979Z,106.03
2022-12-16T00:16:23.159Z,105.88
2022-12-16T00:18:51.717Z,107.72
2022-12-16T00:21:19.927Z,108.18
2022-12-16T00:23:47.863Z,111.97
2022-12-16T00:26:15.108Z,108.57
2022-12-16T00:28:44.030Z,115.78
2022-12-16T00:31:11.545Z,115.43
2022-12-16T00:33:38.741Z,113.10
2022-12-16T00:36:06.191Z,119.03
2022-12-16T00:38:33.470Z,115.63
2022-12-16T00:41:00.643Z,107.50
2022-12-16T00:43:27.781Z,112.25
2022-12-16T00:45:55.029Z,104.53
2022-12-16T00:48:23.526Z,106.57
2022-12-16T00:50:52.970Z,105.43
2022-12-16T00:53:23.738Z,106.30
2022-12-16T00:55:51.039Z,100.32
2022-12-16T00:58:19.104Z,107.22
2022-12-16T01:00:46.653Z,111.75
2022-12-16T01:03:19.389Z,105.18
2022-12-16T01:05:48.581Z,106.90
2022-12-16T01:08:15.913Z,103.63
2022-12-16T01:10:43.213Z,103.47
2022-12-16T01:13:10.384Z,103.57
2022-12-16T01:15:37.879Z,106.75
2022-12-16T01:18:05.594Z,104.43
2022-12-16T01:20:33.560Z,100.78
2022-12-16T01:23:01.038Z,104.03
2022-12-16T01:25:28.311Z,108.63
2022-12-16T01:27:55.631Z,100.13
2022-12-16T01:30:23.375Z,98.85
2022-12-16T01:32:50.648Z,100.30
2022-12-16T01:35:50.963Z,93.03
2022-12-16T01:38:05.237Z,105.78
2022-12-16T01:40:32.492Z,101.18
2022-12-16T01:42:59.597Z,104.07
2022-12-16T01:45:36.114Z,101.05
2022-12-16T01:48:27.628Z,98.00
2022-12-16T01:51:01.601Z,102.15
2022-12-16T01:53:30.573Z,102.90
2022-12-16T01:55:58.797Z,106.65
2022-12-16T01:58:30.357Z,102.60
2022-12-16T02:00:57.997Z,98.28
2022-12-16T02:03:27.563Z,99.80
2022-12-16T02:05:56.003Z,97.38
2022-12-16T02:08:23.121Z,105.78
2022-12-16T02:11:09.256Z,103.85
2022-12-16T02:13:39.669Z,104.68
2022-12-16T02:16:26.705Z,112.25
2022-12-16T02:19:12.897Z,104.88
2022-12-16T02:22:00.856Z,101.32
2022-12-16T02:25:03.209Z,107.47
2022-12-16T02:27:51.666Z,102.22
2022-12-16T02:30:27.445Z,101.38
2022-12-16T02:33:10.452Z,104.90
2022-12-16T02:35:56.463Z,106.55
2022-12-16T02:38:46.018Z,96.25
2022-12-16T02:41:26.769Z,100.82
2022-12-16T02:44:10.940Z,99.68
2022-12-16T02:46:44.539Z,79.70
2022-12-16T02:49:12.581Z,93.90
2022-12-16T02:51:40.243Z,98.57
2022-12-16T02:54:09.720Z,98.88
2022-12-16T02:56:42.143Z,102.38
2022-12-16T02:59:35.743Z,96.97
2022-12-16T03:02:26.378Z,100.97
2022-12-16T03:05:00.000Z,107.18
2022-12-16T03:07:31.451Z,103.82
2022-12-16T03:09:59.975Z,102.10
2022-12-16T03:12:27.463Z,103.53
2022-12-16T03:14:55.587Z,105.88
2022-12-16T03:17:25.396Z,104.43
2022-12-16T03:20:04.326Z,106.88
2022-12-16T03:22:34.410Z,111.15
2022-12-16T03:25:01.503Z,106.43
2022-12-16T03:27:58.384Z,107.25
2022-12-16T03:30:33.125Z,112.25
2022-12-16T03:33:07.188Z,117.25
2022-12-16T03:35:42.682Z,111.78
2022-12-16T03:38:12.636Z,108.25
2022-12-16T03:40:42.692Z,108.50
2022-12-16T03:43:12.108Z,105.25
2022-12-16T03:45:41.864Z,108.10
2022-12-16T03:48:10.715Z,110.93
2022-12-16T03:50:39.512Z,108.85
2022-12-16T03:53:07.757Z,112.00
2022-12-16T03:55:35.934Z,109.32
2022-12-16T03:58:03.022Z,109.32
2022-12-16T04:00:30.088Z,109.28
2022-12-16T04:02:57.403Z,113.97
2022-12-16T04:05:24.695Z,103.43
2022-12-16T04:07:51.923Z,106.93
2022-12-16T04:10:39.118Z,109.78
2022-12-16T04:13:26.152Z,117.20
2022-12-16T04:16:13.406Z,109.93
2022-12-16T04:19:01.189Z,106.18
2022-12-16T04:21:48.372Z,103.65
2022-12-16T04:24:19.594Z,108.93
2022-12-16T04:27:13.563Z,97.57
2022-12-16T04:30:02.750Z,101.05
2022-12-16T04:32:52.076Z,109.03
2022-12-16T04:35:39.588Z,102.15
2022-12-16T04:38:26.626Z,102.95
2022-12-16T04:41:13.898Z,107.78
2022-12-16T04:44:01.146Z,105.07
2022-12-16T04:46:48.441Z,102.80
2022-12-16T04:49:35.489Z,105.70
2022-12-16T04:52:22.759Z,109.07
2022-12-16T04:55:10.025Z,104.35
2022-12-16T04:57:57.031Z,104.22
2022-12-16T05:00:44.060Z,106.13
2022-12-16T05:03:31.457Z,111.05
2022-12-16T05:06:19.003Z,110.57
2022-12-16T05:09:06.035Z,109.45
2022-12-16T05:11:53.091Z,105.88
2022-12-16T05:14:40.126Z,107.10
2022-12-16T05:17:27.344Z,107.00
2022-12-16T05:20:14.619Z,111.05
2022-12-16T05:23:02.561Z,106.97
2022-12-16T05:25:49.768Z,113.72
2022-12-16T05:28:37.111Z,110.53
2022-12-16T05:31:24.910Z,119.10
2022-12-16T05:34:12.166Z,117.15
2022-12-16T05:36:59.453Z,111.57
2022-12-16T05:39:46.607Z,115.47
2022-12-16T05:42:33.713Z,113.15
2022-12-16T05:45:20.877Z,118.80
2022-12-16T05:48:09.203Z,113.55
2022-12-16T05:50:56.210Z,120.53
2022-12-16T05:53:55.257Z,117.78
2022-12-16T05:56:42.348Z,117.18
2022-12-16T05:59:29.900Z,122.88
2022-12-16T06:02:17.033Z,111.50
2022-12-16T06:05:04.412Z,109.35
2022-12-16T06:07:51.509Z,123.72
2022-12-16T06:10:41.988Z,109.72
2022-12-16T06:13:29.361Z,114.03
2022-12-16T06:16:16.744Z,111.00
2022-12-16T06:19:03.812Z,109.43
2022-12-16T06:21:50.768Z,113.28
2022-12-16T06:24:37.830Z,105.53
2022-12-16T06:27:25.089Z,113.70
2022-12-16T06:30:12.145Z,107.88
2022-12-16T06:32:59.079Z,116.95
2022-12-16T06:35:46.382Z,111.40
2022-12-16T06:38:33.300Z,107.80
2022-12-16T06:41:20.317Z,110.40
2022-12-16T06:44:07.342Z,100.93
2022-12-16T06:46:54.375Z,113.82
2022-12-16T06:49:59.622Z,105.80
2022-12-16T06:52:46.707Z,113.63
2022-12-16T06:55:33.846Z,119.20
2022-12-16T06:58:21.325Z,114.72
2022-12-16T07:01:08.453Z,109.18
2022-12-16T07:03:55.480Z,119.75
2022-12-16T07:06:42.590Z,116.32
2022-12-16T07:09:29.757Z,107.85
2022-12-16T07:12:16.808Z,103.68
2022-12-16T07:15:03.840Z,111.63
2022-12-16T07:17:50.902Z,113.43
2022-12-16T07:20:38.045Z,118.93
2022-12-16T07:23:25.241Z,121.95
2022-12-16T07:26:12.319Z,123.70
2022-12-16T07:28:59.324Z,116.28
2022-12-16T07:31:46.561Z,107.88
2022-12-16T07:34:40.254Z,110.55
2022-12-16T07:37:28.444Z,117.22
2022-12-16T07:40:15.601Z,109.20
2022-12-16T07:43:03.179Z,104.35
2022-12-16T07:45:50.424Z,108.18
2022-12-16T07:48:37.952Z,110.35
2022-12-16T07:51:25.089Z,105.95
2022-12-16T07:54:12.079Z,104.03
2022-12-16T07:56:59.253Z,104.13
2022-12-16T07:59:46.615Z,106.88
2022-12-16T08:02:33.762Z,104.30
2022-12-16T08:05:20.906Z,103.07
2022-12-16T08:08:07.908Z,95.20
2022-12-16T08:10:55.297Z,102.53
2022-12-16T08:13:42.406Z,109.85
2022-12-16T08:16:29.583Z,103.03
2022-12-16T08:19:16.791Z,110.45
2022-12-16T08:22:03.971Z,103.70
2022-12-16T08:24:53.532Z,100.15
2022-12-16T08:27:43.211Z,104.63
2022-12-16T08:30:30.825Z,98.18
2022-12-16T08:33:30.774Z,91.78
2022-12-16T08:36:18.879Z,98.15
2022-12-16T08:39:05.907Z,101.00
2022-12-16T08:41:53.072Z,95.10
2022-12-16T08:44:41.141Z,94.57
2022-12-16T08:47:28.299Z,98.05
2022-12-16T08:50:15.256Z,94.35
2022-12-16T08:53:02.240Z,89.55
2022-12-16T08:55:49.368Z,97.93
2022-12-16T08:58:36.300Z,94.03
2022-12-16T09:01:23.562Z,96.28
2022-12-16T09:04:10.768Z,96.25
2022-12-16T09:06:57.752Z,99.25
2022-12-16T09:09:44.851Z,94.63
2022-12-16T09:12:31.809Z,94.53
2022-12-16T09:15:18.742Z,91.90
2022-12-16T09:18:05.806Z,85.07
2022-12-16T09:20:52.872Z,89.20
2022-12-16T09:23:40.047Z,90.57
2022-12-16T09:26:27.155Z,87.43
2022-12-16T09:29:14.137Z,86.50
2022-12-16T09:32:01.240Z,94.15
2022-12-16T09:34:48.311Z,87.47
2022-12-16T09:37:35.563Z,87.68
2022-12-16T09:40:22.980Z,92.03
2022-12-16T09:43:17.508Z,95.88
2022-12-16T09:46:09.093Z,93.75
2022-12-16T09:49:36.067Z,98.40
2022-12-16T09:52:26.134Z,95.60
2022-12-16T09:55:13.405Z,89.53
2022-12-16T09:58:00.484Z,92.03
2022-12-16T10:00:48.800Z,87.35
2022-12-16T10:03:43.745Z,84.70
2022-12-16T10:06:58.157Z,85.90
2022-12-16T10:10:05.063Z,83.72
2022-12-16T10:12:58.911Z,75.07
2022-12-16T10:15:49.319Z,83.15
2022-12-16T10:18:50.028Z,87.05
2022-12-16T10:21:43.584Z,81.45
2022-12-16T10:24:59.941Z,85.72
2022-12-16T10:27:59.701Z,77.10
2022-12-16T10:30:47.540Z,80.93
2022-12-16T10:33:36.302Z,82.70
2022-12-16T10:36:26.216Z,76.93
2022-12-16T10:39:20.479Z,83.03
2022-12-16T10:42:11.914Z,84.47
2022-12-16T10:45:18.105Z,89.47
2022-12-16T10:48:05.099Z,79.95
2022-12-16T10:50:52.226Z,85.50
2022-12-16T10:53:46.759Z,89.85
2022-12-16T10:56:58.297Z,90.22
2022-12-16T10:59:57.249Z,90.57
2022-12-16T11:02:46.608Z,84.82
2022-12-16T11:05:46.868Z,88.95
2022-12-16T11:08:55.474Z,85.47
2022-12-16T11:11:44.305Z,83.60
2022-12-16T11:15:05.521Z,78.53
2022-12-16T11:17:52.047Z,91.50
2022-12-16T11:20:44.089Z,89.97
2022-12-16T11:23:33.461Z,93.50
2022-12-16T11:26:38.731Z,86.93
2022-12-16T11:29:26.754Z,70.28
2022-12-16T11:32:17.308Z,86.95
2022-12-16T11:35:10.501Z,90.95
2022-12-16T11:38:00.151Z,88.57
2022-12-16T11:40:49.444Z,91.75
2022-12-16T11:43:39.255Z,84.72
2022-12-16T11:46:32.803Z,82.47
2022-12-16T11:49:25.494Z,79.53
2022-12-16T11:52:36.427Z,89.45
2022-12-16T11:59:02.266Z,86.22
2022-12-16T12:01:58.840Z,80.10
2022-12-16T12:04:46.066Z,86.13
2022-12-16T12:08:01.596Z,89.95
2022-12-16T12:11:22.652Z,74.43
2022-12-16T12:14:33.287Z,89.90
2022-12-16T12:17:20.331Z,85.40
2022-12-16T12:20:11.826Z,85.47
2022-12-16T12:23:00.259Z,93.78
2022-12-16T12:25:52.939Z,93.57
2022-12-16T12:29:08.603Z,101.65
2022-12-16T12:32:09.311Z,95.20
2022-12-16T12:34:56.428Z,97.88
2022-12-16T12:37:49.056Z,91.32
2022-12-16T12:41:02.623Z,97.05
2022-12-16T12:43:57.236Z,95.75
2022-12-16T12:46:53.629Z,71.00
2022-12-16T12:49:49.241Z,89.55
2022-12-16T12:52:55.117Z,90.18
2022-12-16T12:55:43.671Z,89.18
2022-12-16T12:58:32.224Z,93.28
2022-12-16T13:01:22.502Z,90.13
2022-12-16T13:04:18.787Z,89.15
2022-12-16T13:07:06.700Z,87.20
2022-12-16T13:09:55.599Z,91.25
2022-12-16T13:12:50.443Z,90.60
2022-12-16T13:15:39.527Z,69.97
2022-12-16T13:18:26.632Z,87.47
2022-12-16T13:21:16.825Z,88.93
2022-12-16T13:24:05.255Z,81.88
2022-12-16T13:26:54.877Z,86.30
2022-12-16T13:29:47.831Z,88.63
2022-12-16T13:32:39.694Z,80.90
2022-12-16T13:35:30.268Z,86.05
2022-12-16T13:38:18.920Z,86.05
2022-12-16T13:41:10.865Z,88.75
2022-12-16T13:44:18.812Z,86.47
2022-12-16T13:47:12.336Z,89.15
2022-12-16T13:50:01.119Z,80.57
2022-12-16T13:53:08.051Z,90.50
2022-12-16T13:56:16.199Z,82.93
2022-12-16T13:59:12.061Z,78.28
2022-12-16T14:02:09.841Z,75.57
2022-12-16T14:05:00.058Z,74.75
2022-12-16T14:07:47.801Z,74.20
2022-12-16T14:10:56.826Z,69.20
2022-12-16T14:14:03.834Z,70.72
2022-12-16T14:17:10.824Z,74.55
2022-12-16T14:20:05.370Z,73.03
2022-12-16T14:23:08.627Z,62.13
2022-12-16T14:25:55.878Z,70.97
2022-12-16T14:29:00.214Z,73.90
2022-12-16T14:31:52.653Z,71.53
2022-12-16T14:34:43.115Z,74.88
2022-12-16T14:37:58.119Z,66.32
2022-12-16T14:40:50.772Z,51.10
2022-12-16T14:43:40.360Z,67.10
2022-12-16T14:46:38.835Z,65.10
2022-12-16T14:49:39.789Z,60.47
2022-12-16T14:52:45.851Z,60.30
2022-12-16T14:55:38.887Z,72.90
2022-12-16T14:58:31.946Z,61.42
2022-12-16T15:01:22.130Z,64.43
2022-12-16T15:04:10.134Z,63.10
2022-12-16T15:07:01.812Z,66.07
2022-12-16T15:09:57.942Z,85.85
2022-12-16T15:12:48.755Z,88.18
2022-12-16T15:15:49.110Z,76.18
2022-12-16T15:18:40.441Z,74.57
2022-12-16T15:21:28.428Z,69.65
2022-12-16T15:24:16.656Z,67.28
2022-12-16T15:27:04.069Z,62.03
2022-12-16T15:30:00.928Z,65.78
2022-12-16T15:32:48.033Z,68.70
2022-12-16T15:35:56.680Z,84.72
2022-12-16T15:38:54.219Z,94.43
2022-12-16T15:41:51.318Z,93.85
2022-12-16T15:44:41.293Z,88.15
2022-12-16T15:47:50.986Z,73.20
2022-12-16T15:50:41.965Z,59.80
2022-12-16T15:53:51.984Z,77.82
2022-12-16T15:56:44.537Z,70.55
2022-12-16T15:59:44.180Z,65.47
2022-12-16T16:02:37.388Z,63.67
2022-12-16T16:05:36.314Z,59.72
2022-12-16T16:08:23.526Z,58.92
2022-12-16T16:11:10.737Z,59.30
2022-12-16T16:14:04.230Z,60.75
2022-12-16T16:16:53.468Z,57.10
2022-12-16T16:19:44.906Z,60.80
2022-12-16T16:22:34.407Z,56.13
2022-12-16T16:25:21.801Z,56.15
2022-12-16T16:28:08.958Z,78.00
2022-12-16T16:30:55.970Z,78.82
2022-12-16T16:33:43.072Z,61.78
2022-12-16T16:36:34.718Z,62.90
2022-12-16T16:39:21.822Z,64.50
2022-12-16T16:42:08.903Z,70.50
2022-12-16T16:44:55.978Z,84.43
2022-12-16T16:47:43.058Z,110.28
2022-12-16T16:50:34.845Z,87.55
2022-12-16T16:53:21.915Z,70.00
2022-12-16T16:56:19.758Z,62.65
2022-12-16T16:59:07.383Z,67.45
2022-12-16T17:01:54.679Z,59.05
2022-12-16T17:04:42.018Z,55.42
2022-12-16T17:07:28.959Z,49.45
2022-12-16T17:10:16.042Z,51.00
2022-12-16T17:13:04.813Z,48.88
2022-12-16T17:15:57.275Z,49.53
2022-12-16T17:18:49.014Z,52.05
2022-12-16T17:21:39.082Z,56.78
2022-12-16T17:24:26.340Z,59.28
2022-12-16T17:27:13.293Z,62.88
2022-12-16T17:30:00.466Z,66.20
2022-12-16T17:32:47.573Z,58.95
2022-12-16T17:35:34.694Z,59.75
2022-12-16T17:38:21.789Z,58.67
2022-12-16T17:41:13.143Z,56.95
2022-12-16T17:44:00.221Z,53.88
2022-12-16T17:46:47.310Z,53.10
2022-12-16T17:49:34.427Z,55.97
2022-12-16T17:52:21.572Z,63.92
2022-12-16T17:55:08.550Z,56.20
2022-12-16T17:57:55.734Z,62.13
2022-12-16T18:00:42.757Z,68.18
2022-12-16T18:03:30.186Z,70.63
2022-12-16T18:06:17.698Z,74.07
2022-12-16T18:09:05.082Z,69.90
2022-12-16T18:11:51.983Z,74.90
2022-12-16T18:14:39.020Z,70.93
2022-12-16T18:17:26.170Z,70.78
2022-12-16T18:20:13.342Z,65.20
2022-12-16T18:23:00.657Z,65.57
2022-12-16T18:25:47.866Z,63.85
2022-12-16T18:28:34.970Z,63.08
2022-12-16T18:31:25.823Z,68.88
2022-12-16T18:34:12.785Z,64.05
2022-12-16T18:37:00.112Z,63.22
2022-12-16T18:39:47.249Z,59.97
2022-12-16T18:42:34.314Z,66.57
2022-12-16T18:45:21.669Z,70.15
2022-12-16T18:48:08.783Z,80.63
2022-12-16T18:50:56.187Z,74.43
2022-12-16T18:53:43.665Z,79.75
2022-12-16T18:56:31.390Z,75.60
2022-12-16T18:59:19.630Z,75.47
2022-12-16T19:02:06.717Z,79.05
2022-12-16T19:04:53.877Z,77.88
2022-12-16T19:07:41.129Z,67.18
2022-12-16T19:10:28.805Z,69.05
2022-12-16T19:13:17.377Z,68.63
2022-12-16T19:16:17.193Z,63.63
2022-12-16T19:19:05.638Z,62.85
2022-12-16T19:21:56.516Z,66.22
2022-12-16T19:24:44.810Z,65.20
2022-12-16T19:27:32.999Z,69.75
2022-12-16T19:30:20.279Z,65.20
2022-12-16T19:33:09.335Z,64.55
2022-12-16T19:35:56.828Z,67.35
2022-12-16T19:38:44.404Z,62.10
2022-12-16T19:41:36.368Z,65.28
2022-12-16T19:44:24.771Z,63.10
2022-12-16T19:47:11.804Z,64.93
2022-12-16T19:49:59.031Z,63.47
2022-12-16T19:52:46.125Z,69.90
2022-12-16T19:55:33.201Z,65.75
2022-12-16T19:58:20.274Z,68.22
2022-12-16T20:01:07.464Z,65.13
2022-12-16T20:03:56.573Z,67.82
2022-12-16T20:06:44.072Z,68.65
2022-12-16T20:09:31.153Z,65.72
2022-12-16T20:12:18.650Z,63.85
2022-12-16T20:15:05.933Z,71.75
2022-12-16T20:17:56.126Z,64.13
2022-12-16T20:20:43.385Z,61.60
2022-12-16T20:23:30.453Z,66.40
2022-12-16T20:26:20.060Z,65.82
2022-12-16T20:29:07.373Z,65.68
2022-12-16T20:35:02.103Z,61.00
2022-12-16T20:37:49.316Z,64.90
2022-12-16T20:40:36.759Z,63.38
2022-12-16T20:43:23.932Z,68.35
2022-12-16T20:46:15.570Z,72.03
2022-12-16T20:49:02.864Z,78.22
2022-12-16T20:51:49.916Z,74.85
2022-12-16T20:54:36.967Z,77.30
2022-12-16T20:57:24.027Z,73.80
2022-12-16T21:00:10.986Z,72.35
2022-12-16T21:02:58.117Z,67.78
2022-12-16T21:05:46.533Z,66.88
2022-12-16T21:08:33.507Z,63.28
2022-12-16T21:11:20.532Z,67.25
2022-12-16T21:14:07.498Z,61.40
2022-12-16T21:16:54.579Z,60.03
2022-12-16T21:19:43.221Z,55.92
2022-12-16T21:22:30.411Z,61.75
2022-12-16T21:25:21.216Z,57.92
2022-12-16T21:28:15.614Z,57.23
2022-12-16T21:31:02.973Z,62.20
2022-12-16T21:33:50.200Z,59.88
2022-12-16T21:36:37.221Z,55.55
2022-12-16T21:39:24.435Z,56.05
2022-12-16T21:42:11.563Z,60.53
2022-12-16T21:44:58.802Z,62.67
2022-12-16T21:47:45.863Z,69.15
2022-12-16T21:50:32.941Z,70.90
2022-12-16T21:53:20.026Z,72.57
2022-12-16T21:56:16.243Z,68.75
2022-12-16T21:59:03.846Z,71.15
2022-12-16T22:01:50.889Z,63.97
2022-12-16T22:04:38.952Z,65.60
2022-12-16T22:07:26.335Z,64.45
2022-12-16T22:10:13.537Z,65.07
2022-12-16T22:13:00.752Z,64.25
2022-12-16T22:15:47.929Z,72.32
2022-12-16T22:18:37.086Z,67.10
2022-12-16T22:21:26.044Z,65.90
2022-12-16T22:24:13.497Z,66.65
2022-12-16T22:27:00.679Z,64.70
2022-12-16T22:29:47.682Z,64.65
2022-12-16T22:32:34.707Z,63.97
2022-12-16T22:35:21.849Z,58.03
2022-12-16T22:38:08.835Z,52.85
2022-12-16T22:40:56.576Z,46.35
2022-12-16T22:43:52.113Z,48.13
2022-12-16T22:46:39.278Z,48.53
2022-12-16T22:49:26.359Z,59.55
2022-12-16T22:52:13.671Z,55.08
2022-12-16T22:55:00.781Z,61.88
2022-12-16T22:57:50.851Z,71.07
2022-12-16T23:00:40.859Z,61.65
2022-12-16T23:03:27.806Z,62.28
2022-12-16T23:06:14.908Z,62.85
2022-12-16T23:09:01.830Z,62.72
2022-12-16T23:11:56.440Z,65.40
2022-12-16T23:14:44.503Z,68.60
2022-12-16T23:17:32.678Z,65.63
2022-12-16T23:20:19.966Z,62.95
2022-12-16T23:23:06.874Z,66.72
2022-12-16T23:25:59.653Z,67.75
2022-12-16T23:28:46.583Z,64.28
2022-12-16T23:31:33.655Z,66.55
2022-12-16T23:34:20.801Z,70.13
2022-12-16T23:37:07.854Z,63.10
2022-12-16T23:39:54.972Z,65.13
2022-12-16T23:42:43.525Z,55.00
2022-12-16T23:45:30.768Z,49.03
2022-12-16T23:48:23.657Z,44.63
2022-12-16T23:51:11.155Z,45.50
2022-12-16T23:53:58.193Z,41.72
2022-12-16T23:56:45.678Z,39.40
2022-12-16T23:59:32.702Z,41.17
